createdAt,value
2023-05-07T00:02:16.575Z,5.00
2023-05-07T00:04:45.204Z,4.60
2023-05-07T00:07:13.756Z,5.37
2023-05-07T00:09:42.199Z,4.87
2023-05-07T00:12:10.772Z,5.20
2023-05-07T00:14:40.525Z,4.90
2023-05-07T00:17:09.136Z,4.97
2023-05-07T00:19:37.602Z,4.80
2023-05-07T00:22:06.169Z,4.70
2023-05-07T00:24:34.897Z,4.87
2023-05-07T00:27:03.413Z,4.80
2023-05-07T00:29:31.904Z,4.57
2023-05-07T00:32:02.656Z,4.50
2023-05-07T00:34:31.131Z,4.87
2023-05-07T00:36:59.640Z,5.03
2023-05-07T00:39:28.052Z,4.77
2023-05-07T00:41:56.598Z,5.00
2023-05-07T00:44:25.395Z,4.93
2023-05-07T00:46:53.900Z,5.30
2023-05-07T00:49:23.872Z,5.30
2023-05-07T00:51:52.776Z,4.73
2023-05-07T00:54:21.257Z,5.47
2023-05-07T00:56:49.915Z,5.30
2023-05-07T00:59:18.387Z,4.93
2023-05-07T01:01:47.151Z,5.10
2023-05-07T01:04:15.930Z,5.00
2023-05-07T01:06:49.349Z,5.30
2023-05-07T01:09:18.552Z,5.50
2023-05-07T01:11:47.101Z,5.23
2023-05-07T01:14:15.820Z,5.33
2023-05-07T01:16:45.289Z,5.40
2023-05-07T01:19:17.243Z,5.67
2023-05-07T01:21:48.324Z,5.07
2023-05-07T01:24:21.041Z,5.60
2023-05-07T01:26:49.671Z,5.17
2023-05-07T01:29:19.934Z,5.00
2023-05-07T01:31:50.480Z,6.30
2023-05-07T01:34:20.246Z,6.17
2023-05-07T01:36:49.859Z,5.60
2023-05-07T01:39:19.911Z,5.30
2023-05-07T01:41:49.144Z,6.07
2023-05-07T01:44:18.386Z,5.53
2023-05-07T01:46:47.771Z,5.63
2023-05-07T01:49:16.791Z,5.80
2023-05-07T01:51:45.820Z,5.67
2023-05-07T01:54:14.290Z,6.80
2023-05-07T01:56:44.752Z,5.83
2023-05-07T01:59:14.752Z,6.27
2023-05-07T02:01:44.033Z,6.07
2023-05-07T02:04:13.694Z,6.67
2023-05-07T02:06:42.411Z,6.17
2023-05-07T02:09:12.634Z,6.40
2023-05-07T02:11:45.323Z,5.20
2023-05-07T02:14:14.624Z,5.70
2023-05-07T02:16:43.110Z,5.57
2023-05-07T02:19:13.915Z,5.70
2023-05-07T02:21:42.552Z,6.23
2023-05-07T02:24:11.811Z,6.37
2023-05-07T02:26:40.335Z,6.57
2023-05-07T02:29:10.365Z,6.10
2023-05-07T02:31:40.521Z,6.73
2023-05-07T02:34:09.445Z,6.77
2023-05-07T02:36:38.228Z,5.80
2023-05-07T02:39:12.114Z,5.93
2023-05-07T02:41:40.661Z,6.60
2023-05-07T02:44:10.705Z,6.60
2023-05-07T02:46:40.197Z,5.73
2023-05-07T02:49:12.127Z,5.80
2023-05-07T02:51:40.849Z,6.33
2023-05-07T02:54:14.242Z,5.77
2023-05-07T02:56:42.787Z,6.23
2023-05-07T02:59:12.869Z,6.40
2023-05-07T03:01:45.252Z,6.23
2023-05-07T03:04:14.724Z,5.73
2023-05-07T03:06:43.214Z,6.43
2023-05-07T03:09:11.971Z,6.90
2023-05-07T03:11:40.711Z,5.93
2023-05-07T03:14:09.124Z,6.30
2023-05-07T03:16:39.258Z,6.33
2023-05-07T03:19:07.967Z,5.50
2023-05-07T03:21:36.505Z,6.17
2023-05-07T03:24:04.880Z,5.83
2023-05-07T03:26:33.678Z,5.70
2023-05-07T03:29:02.884Z,5.53
2023-05-07T03:31:31.473Z,5.63
2023-05-07T03:34:02.794Z,5.63
2023-05-07T03:36:31.567Z,5.80
2023-05-07T03:38:59.981Z,5.83
2023-05-07T03:41:36.985Z,5.30
2023-05-07T03:44:05.509Z,5.30
2023-05-07T03:46:34.085Z,5.67
2023-05-07T03:49:04.061Z,5.60
2023-05-07T03:51:33.121Z,6.37
2023-05-07T03:54:02.342Z,6.20
2023-05-07T03:56:32.558Z,6.30
2023-05-07T03:59:03.379Z,6.00
2023-05-07T04:01:31.967Z,6.90
2023-05-07T04:04:01.718Z,6.43
2023-05-07T04:06:32.109Z,6.70
2023-05-07T04:09:01.000Z,6.23
2023-05-07T04:11:30.499Z,6.13
2023-05-07T04:13:58.970Z,5.80
2023-05-07T04:16:27.834Z,5.20
2023-05-07T04:18:56.321Z,6.43
2023-05-07T04:21:25.173Z,6.10
2023-05-07T04:23:55.625Z,6.00
2023-05-07T04:26:24.359Z,6.63
2023-05-07T04:28:53.359Z,6.53
2023-05-07T04:31:22.966Z,5.70
2023-05-07T04:33:54.437Z,6.33
2023-05-07T04:36:23.033Z,5.70
2023-05-07T04:39:00.214Z,6.07
2023-05-07T04:41:29.391Z,6.53
2023-05-07T04:44:00.015Z,5.93
2023-05-07T04:46:31.721Z,5.53
2023-05-07T04:49:01.854Z,6.20
2023-05-07T04:51:30.472Z,6.13
2023-05-07T04:54:00.988Z,5.80
2023-05-07T04:56:32.175Z,5.50
2023-05-07T04:59:02.502Z,5.20
2023-05-07T05:01:33.005Z,5.03
2023-05-07T05:04:02.289Z,5.67
2023-05-07T05:06:31.711Z,5.93
2023-05-07T05:09:02.094Z,6.00
2023-05-07T05:11:32.189Z,5.80
2023-05-07T05:14:03.027Z,5.67
2023-05-07T05:16:31.942Z,5.10
2023-05-07T05:19:00.595Z,5.63
2023-05-07T05:21:30.406Z,4.93
2023-05-07T05:24:06.277Z,5.23
2023-05-07T05:26:34.940Z,5.60
2023-05-07T05:29:04.376Z,5.37
2023-05-07T05:31:34.801Z,5.43
2023-05-07T05:34:03.593Z,5.97
2023-05-07T05:36:33.065Z,6.03
2023-05-07T05:39:02.204Z,6.13
2023-05-07T05:41:32.565Z,6.13
2023-05-07T05:44:01.674Z,6.03
2023-05-07T05:46:30.590Z,6.23
2023-05-07T05:48:59.390Z,6.30
2023-05-07T05:51:29.163Z,7.23
2023-05-07T05:53:58.212Z,6.93
2023-05-07T05:56:27.352Z,7.07
2023-05-07T05:58:57.721Z,7.13
2023-05-07T06:01:30.485Z,7.20
2023-05-07T06:04:02.956Z,6.90
2023-05-07T06:06:32.518Z,7.97
2023-05-07T06:09:02.234Z,6.95
2023-05-07T06:11:38.196Z,6.90
2023-05-07T06:14:09.177Z,6.60
2023-05-07T06:16:39.298Z,6.43
2023-05-07T06:19:10.910Z,5.05
2023-05-07T06:21:42.283Z,6.25
2023-05-07T06:24:11.350Z,5.80
2023-05-07T06:26:41.405Z,5.72
2023-05-07T06:29:11.829Z,5.47
2023-05-07T06:31:42.931Z,5.75
2023-05-07T06:34:15.191Z,5.60
2023-05-07T06:36:44.489Z,5.75
2023-05-07T06:39:33.714Z,5.15
2023-05-07T06:42:05.476Z,5.70
2023-05-07T06:44:36.195Z,5.82
2023-05-07T06:47:10.409Z,5.95
2023-05-07T06:49:41.153Z,6.43
2023-05-07T06:52:09.756Z,6.20
2023-05-07T06:54:38.589Z,5.78
2023-05-07T06:57:07.176Z,6.78
2023-05-07T06:59:37.131Z,6.40
2023-05-07T07:02:05.706Z,6.10
2023-05-07T07:04:36.029Z,6.10
2023-05-07T07:07:08.072Z,5.80
2023-05-07T07:09:37.991Z,6.68
2023-05-07T07:12:08.304Z,6.07
2023-05-07T07:14:40.555Z,6.40
2023-05-07T07:17:09.219Z,6.30
2023-05-07T07:19:38.760Z,5.90
2023-05-07T07:22:07.525Z,6.32
2023-05-07T07:24:36.144Z,6.00
2023-05-07T07:27:07.527Z,5.53
2023-05-07T07:29:37.099Z,6.57
2023-05-07T07:32:07.633Z,6.10
2023-05-07T07:34:36.915Z,5.93
2023-05-07T07:37:06.372Z,6.55
2023-05-07T07:39:38.794Z,6.22
2023-05-07T07:42:09.047Z,5.40
2023-05-07T07:44:37.777Z,6.13
2023-05-07T07:47:11.466Z,6.70
2023-05-07T07:49:40.612Z,6.78
2023-05-07T07:52:10.778Z,6.45
2023-05-07T07:54:40.502Z,6.35
2023-05-07T07:57:09.718Z,6.65
2023-05-07T07:59:38.866Z,6.15
2023-05-07T08:02:07.826Z,5.97
2023-05-07T08:04:38.854Z,6.53
2023-05-07T08:07:09.491Z,5.53
2023-05-07T08:09:41.968Z,5.75
2023-05-07T08:12:13.347Z,6.47
2023-05-07T08:14:42.307Z,5.38
2023-05-07T08:17:11.771Z,4.50
2023-05-07T08:19:42.027Z,3.97
2023-05-07T08:22:13.814Z,3.92
2023-05-07T08:24:42.908Z,3.35
2023-05-07T08:27:14.450Z,4.40
2023-05-07T08:29:48.409Z,3.60
2023-05-07T08:32:19.162Z,4.22
2023-05-07T08:34:49.323Z,4.60
2023-05-07T08:37:17.727Z,3.92
2023-05-07T08:39:47.192Z,4.15
2023-05-07T08:42:21.573Z,4.07
2023-05-07T08:44:54.098Z,4.80
2023-05-07T08:47:25.446Z,4.20
2023-05-07T08:49:59.157Z,4.03
2023-05-07T08:52:27.887Z,2.92
2023-05-07T08:54:56.736Z,2.70
2023-05-07T08:57:27.441Z,3.35
2023-05-07T08:59:58.559Z,2.90
2023-05-07T09:02:27.401Z,3.33
2023-05-07T09:04:58.476Z,3.53
2023-05-07T09:07:28.538Z,2.92
2023-05-07T09:09:58.216Z,2.90
2023-05-07T09:12:27.916Z,3.30
2023-05-07T09:14:56.368Z,3.75
2023-05-07T09:17:24.954Z,3.90
2023-05-07T09:19:54.453Z,4.07
2023-05-07T09:22:24.366Z,4.10
2023-05-07T09:24:59.302Z,4.20
2023-05-07T09:27:29.570Z,4.20
2023-05-07T09:30:00.882Z,3.88
2023-05-07T09:32:31.635Z,3.20
2023-05-07T09:35:01.330Z,3.03
2023-05-07T09:37:33.557Z,2.90
2023-05-07T09:40:02.510Z,3.03
2023-05-07T09:42:35.268Z,2.63
2023-05-07T09:45:08.274Z,3.00
2023-05-07T09:47:41.781Z,3.03
2023-05-07T09:50:11.562Z,2.90
2023-05-07T09:52:43.663Z,2.50
2023-05-07T09:55:13.955Z,2.22
2023-05-07T09:57:42.980Z,2.03
2023-05-07T10:00:13.898Z,1.90
2023-05-07T10:02:52.991Z,1.85
2023-05-07T10:05:28.258Z,1.65
2023-05-07T10:08:03.224Z,1.40
2023-05-07T10:10:33.900Z,1.67
2023-05-07T10:13:06.987Z,2.13
2023-05-07T10:15:37.721Z,1.48
2023-05-07T10:18:09.324Z,1.30
2023-05-07T10:20:39.390Z,1.38
2023-05-07T10:23:15.723Z,1.30
2023-05-07T10:25:48.225Z,1.17
2023-05-07T10:28:22.918Z,1.17
2023-05-07T10:30:57.248Z,1.20
2023-05-07T10:33:29.112Z,1.50
2023-05-07T10:36:00.424Z,1.30
2023-05-07T10:38:31.409Z,1.08
2023-05-07T10:41:02.067Z,1.30
2023-05-07T10:43:42.471Z,1.08
2023-05-07T10:46:13.011Z,1.40
2023-05-07T10:49:05.400Z,1.00
2023-05-07T10:52:18.547Z,1.10
2023-05-07T10:55:14.662Z,0.82
2023-05-07T10:57:45.775Z,1.00
2023-05-07T11:00:46.026Z,1.40
2023-05-07T11:03:23.686Z,1.40
2023-05-07T11:06:16.107Z,1.00
2023-05-07T11:08:59.379Z,1.27
2023-05-07T11:11:57.478Z,1.10
2023-05-07T11:14:50.844Z,1.10
2023-05-07T11:17:37.452Z,1.20
2023-05-07T11:20:10.016Z,1.30
2023-05-07T11:22:49.673Z,1.10
2023-05-07T11:25:26.345Z,1.10
2023-05-07T11:28:19.438Z,1.33
2023-05-07T11:31:09.398Z,1.23
2023-05-07T11:33:39.495Z,1.00
2023-05-07T11:36:14.421Z,0.90
2023-05-07T11:38:48.452Z,1.23
2023-05-07T11:41:18.552Z,1.25
2023-05-07T11:43:57.119Z,1.40
2023-05-07T11:46:27.229Z,1.50
2023-05-07T11:48:57.395Z,1.27
2023-05-07T11:51:26.921Z,1.30
2023-05-07T11:53:56.045Z,1.42
2023-05-07T11:56:25.262Z,1.50
2023-05-07T11:58:53.833Z,1.30
2023-05-07T12:01:22.925Z,1.30
2023-05-07T12:03:52.870Z,1.52
2023-05-07T12:06:21.753Z,1.63
2023-05-07T12:08:50.506Z,1.58
2023-05-07T12:11:25.682Z,1.23
2023-05-07T12:13:54.344Z,1.52
2023-05-07T12:16:23.324Z,1.30
2023-05-07T12:18:56.206Z,1.30
2023-05-07T12:21:25.325Z,1.40
2023-05-07T12:23:53.776Z,1.50
2023-05-07T12:26:22.871Z,1.42
2023-05-07T12:28:59.978Z,1.38
2023-05-07T12:31:28.797Z,1.30
2023-05-07T12:33:58.687Z,1.30
2023-05-07T12:36:29.629Z,1.63
2023-05-07T12:38:57.998Z,1.38
2023-05-07T12:41:30.222Z,1.15
2023-05-07T12:43:59.560Z,1.40
2023-05-07T12:46:28.182Z,1.65
2023-05-07T12:48:56.722Z,1.60
2023-05-07T12:51:26.693Z,1.73
2023-05-07T12:53:59.218Z,1.70
2023-05-07T12:56:27.761Z,1.50
2023-05-07T12:59:00.075Z,1.50
2023-05-07T13:01:31.942Z,1.70
2023-05-07T13:04:03.274Z,1.70
2023-05-07T13:06:33.785Z,1.58
2023-05-07T13:09:02.170Z,1.70
2023-05-07T13:11:30.859Z,1.50
2023-05-07T13:14:00.553Z,1.88
2023-05-07T13:16:39.621Z,1.73
2023-05-07T13:19:08.090Z,1.50
2023-05-07T13:21:43.554Z,1.85
2023-05-07T13:24:12.248Z,1.77
2023-05-07T13:26:41.133Z,1.88
2023-05-07T13:29:10.887Z,1.70
2023-05-07T13:31:43.297Z,1.80
2023-05-07T13:34:13.004Z,1.88
2023-05-07T13:36:43.032Z,1.80
2023-05-07T13:39:11.497Z,1.67
2023-05-07T13:41:39.962Z,2.10
2023-05-07T13:44:09.099Z,1.60
2023-05-07T13:46:37.714Z,1.67
2023-05-07T13:49:06.155Z,1.73
2023-05-07T13:51:34.588Z,1.73
2023-05-07T13:54:04.641Z,1.40
2023-05-07T13:56:33.521Z,1.50
2023-05-07T13:59:01.894Z,1.60
2023-05-07T14:01:30.714Z,1.60
2023-05-07T14:04:00.915Z,1.30
2023-05-07T14:06:29.584Z,1.40
2023-05-07T14:08:59.141Z,1.73
2023-05-07T14:11:29.258Z,1.50
2023-05-07T14:13:57.897Z,1.52
2023-05-07T14:16:26.828Z,1.42
2023-05-07T14:18:57.999Z,1.80
2023-05-07T14:21:26.856Z,1.55
2023-05-07T14:23:57.504Z,1.70
2023-05-07T14:26:27.954Z,1.73
2023-05-07T14:28:59.343Z,1.42
2023-05-07T14:31:28.259Z,1.70
2023-05-07T14:33:58.895Z,1.67
2023-05-07T14:36:28.055Z,2.15
2023-05-07T14:38:56.558Z,1.80
2023-05-07T14:41:25.011Z,1.25
2023-05-07T14:43:53.580Z,1.73
2023-05-07T14:46:25.013Z,1.67
2023-05-07T14:48:53.814Z,1.70
2023-05-07T14:51:23.547Z,1.23
2023-05-07T14:53:53.084Z,1.60
2023-05-07T14:56:22.704Z,1.70
2023-05-07T14:58:51.198Z,1.50
2023-05-07T15:01:19.973Z,1.60
2023-05-07T15:03:49.865Z,1.63
2023-05-07T15:06:18.401Z,1.50
2023-05-07T15:08:47.867Z,1.52
2023-05-07T15:11:16.352Z,1.75
2023-05-07T15:13:45.134Z,1.60
2023-05-07T15:16:15.064Z,1.65
2023-05-07T15:18:43.533Z,1.60
2023-05-07T15:21:13.826Z,1.75
2023-05-07T15:23:44.779Z,1.67
2023-05-07T15:26:16.270Z,1.67
2023-05-07T15:28:44.747Z,1.73
2023-05-07T15:31:13.226Z,1.77
2023-05-07T15:33:42.132Z,1.40
2023-05-07T15:36:11.016Z,1.50
2023-05-07T15:38:41.414Z,1.50
2023-05-07T15:41:10.196Z,1.52
2023-05-07T15:43:45.925Z,1.65
2023-05-07T15:46:14.451Z,1.88
2023-05-07T15:48:43.111Z,1.73
2023-05-07T15:51:11.646Z,1.92
2023-05-07T15:53:41.676Z,1.80
2023-05-07T15:56:10.450Z,1.60
2023-05-07T15:58:39.107Z,1.75
2023-05-07T16:01:08.173Z,2.03
2023-05-07T16:03:37.546Z,1.75
2023-05-07T16:06:06.455Z,2.22
2023-05-07T16:08:35.102Z,1.67
2023-05-07T16:11:04.933Z,1.92
2023-05-07T16:13:33.382Z,1.73
2023-05-07T16:16:01.846Z,1.80
2023-05-07T16:18:30.615Z,2.00
2023-05-07T16:21:00.856Z,1.65
2023-05-07T16:23:29.317Z,1.80
2023-05-07T16:25:58.154Z,1.90
2023-05-07T16:28:27.950Z,1.90
2023-05-07T16:30:56.454Z,1.92
2023-05-07T16:33:24.857Z,1.95
2023-05-07T16:35:53.705Z,2.10
2023-05-07T16:38:22.242Z,2.15
2023-05-07T16:40:50.767Z,1.80
2023-05-07T16:43:20.267Z,2.03
2023-05-07T16:45:50.325Z,1.88
2023-05-07T16:48:21.235Z,1.58
2023-05-07T16:50:52.478Z,1.80
2023-05-07T16:53:21.064Z,1.83
2023-05-07T16:55:49.430Z,1.98
2023-05-07T16:58:18.098Z,1.67
2023-05-07T17:00:50.744Z,1.80
2023-05-07T17:03:21.399Z,1.80
2023-05-07T17:05:49.972Z,1.73
2023-05-07T17:08:18.698Z,2.00
2023-05-07T17:10:47.437Z,1.63
2023-05-07T17:13:21.355Z,1.92
2023-05-07T17:15:50.047Z,2.00
2023-05-07T17:18:18.780Z,1.88
2023-05-07T17:20:53.128Z,1.73
2023-05-07T17:23:28.470Z,1.90
2023-05-07T17:25:57.341Z,1.90
2023-05-07T17:28:28.096Z,2.33
2023-05-07T17:30:56.834Z,1.80
2023-05-07T17:33:25.350Z,1.65
2023-05-07T17:35:59.053Z,1.80
2023-05-07T17:38:33.816Z,2.25
2023-05-07T17:41:03.386Z,1.83
2023-05-07T17:43:35.567Z,1.98
2023-05-07T17:46:29.111Z,2.00
2023-05-07T17:49:01.276Z,1.92
2023-05-07T17:51:54.098Z,1.90
2023-05-07T17:54:26.262Z,1.95
2023-05-07T17:57:16.390Z,1.90
2023-05-07T17:59:45.194Z,2.10
2023-05-07T18:02:17.140Z,2.10
2023-05-07T18:04:46.551Z,2.47
2023-05-07T18:07:47.020Z,2.50
2023-05-07T18:10:18.344Z,2.13
2023-05-07T18:12:52.708Z,2.10
2023-05-07T18:15:24.594Z,2.10
2023-05-07T18:17:53.623Z,2.05
2023-05-07T18:20:34.182Z,2.15
2023-05-07T18:23:05.593Z,2.22
2023-05-07T18:25:39.815Z,1.77
2023-05-07T18:28:08.601Z,1.95
2023-05-07T18:30:37.275Z,1.98
2023-05-07T18:33:06.144Z,1.73
2023-05-07T18:35:34.799Z,2.40
2023-05-07T18:38:04.936Z,2.38
2023-05-07T18:40:44.023Z,2.13
2023-05-07T18:43:13.431Z,2.10
2023-05-07T18:45:48.091Z,2.20
2023-05-07T18:48:20.152Z,2.50
2023-05-07T18:50:49.794Z,2.20
2023-05-07T18:53:22.198Z,2.10
2023-05-07T18:55:52.414Z,2.13
2023-05-07T18:58:21.248Z,2.17
2023-05-07T19:00:49.971Z,2.22
2023-05-07T19:03:21.680Z,2.60
2023-05-07T19:05:53.083Z,2.50
2023-05-07T19:08:24.248Z,2.40
2023-05-07T19:10:53.055Z,2.38
2023-05-07T19:13:26.063Z,2.17
2023-05-07T19:15:58.958Z,2.45
2023-05-07T19:18:32.135Z,2.70
2023-05-07T19:21:01.423Z,2.70
2023-05-07T19:23:33.088Z,2.60
2023-05-07T19:26:02.110Z,2.90
2023-05-07T19:28:31.055Z,2.78
2023-05-07T19:30:59.756Z,2.70
2023-05-07T19:33:29.860Z,2.78
2023-05-07T19:35:59.753Z,2.60
2023-05-07T19:38:29.383Z,2.75
2023-05-07T19:41:00.890Z,2.70
2023-05-07T19:43:31.102Z,2.42
2023-05-07T19:46:00.261Z,2.50
2023-05-07T19:48:29.309Z,2.60
2023-05-07T19:51:00.921Z,2.42
2023-05-07T19:53:33.283Z,2.65
2023-05-07T19:56:06.688Z,2.78
2023-05-07T19:58:35.767Z,2.55
2023-05-07T20:01:14.052Z,2.53
2023-05-07T20:03:44.019Z,2.58
2023-05-07T20:06:13.151Z,2.63
2023-05-07T20:08:43.590Z,2.22
2023-05-07T20:11:18.234Z,2.30
2023-05-07T20:13:46.801Z,2.30
2023-05-07T20:16:15.916Z,2.10
2023-05-07T20:18:44.699Z,2.20
2023-05-07T20:21:15.612Z,2.00
2023-05-07T20:23:44.259Z,2.13
2023-05-07T20:26:16.198Z,2.00
2023-05-07T20:28:45.353Z,1.90
2023-05-07T20:31:14.117Z,1.80
2023-05-07T20:33:43.478Z,1.60
2023-05-07T20:36:18.426Z,1.90
2023-05-07T20:38:49.897Z,1.67
2023-05-07T20:41:24.742Z,1.75
2023-05-07T20:43:53.646Z,1.52
2023-05-07T20:46:23.271Z,1.73
2023-05-07T20:48:52.526Z,1.50
2023-05-07T20:51:20.973Z,1.52
2023-05-07T20:53:49.438Z,1.90
2023-05-07T20:56:18.918Z,1.50
2023-05-07T20:58:52.245Z,1.60
2023-05-07T21:01:21.038Z,1.73
2023-05-07T21:03:50.269Z,1.40
2023-05-07T21:06:18.834Z,1.45
2023-05-07T21:08:48.643Z,1.63
2023-05-07T21:11:18.197Z,1.73
2023-05-07T21:13:46.764Z,1.80
2023-05-07T21:16:17.035Z,1.70
2023-05-07T21:18:45.609Z,1.80
2023-05-07T21:21:16.308Z,1.60
2023-05-07T21:24:00.142Z,1.58
2023-05-07T21:26:29.084Z,1.80
2023-05-07T21:28:57.929Z,1.80
2023-05-07T21:31:28.292Z,1.65
2023-05-07T21:34:00.724Z,1.70
2023-05-07T21:36:31.782Z,1.75
2023-05-07T21:39:00.424Z,2.10
2023-05-07T21:41:28.842Z,2.00
2023-05-07T21:43:57.539Z,1.80
2023-05-07T21:46:26.044Z,1.63
2023-05-07T21:48:58.697Z,2.00
2023-05-07T21:51:35.454Z,1.90
2023-05-07T21:54:04.171Z,1.83
2023-05-07T21:56:35.106Z,1.92
2023-05-07T21:59:03.856Z,2.20
2023-05-07T22:01:32.301Z,2.30
2023-05-07T22:04:03.892Z,2.20
2023-05-07T22:06:32.524Z,2.35
2023-05-07T22:09:03.616Z,2.13
2023-05-07T22:11:33.140Z,2.63
2023-05-07T22:14:01.851Z,2.20
2023-05-07T22:16:30.597Z,2.97
2023-05-07T22:18:59.061Z,2.60
2023-05-07T22:21:29.190Z,2.57
2023-05-07T22:23:57.611Z,2.20
2023-05-07T22:26:26.627Z,2.33
2023-05-07T22:28:59.830Z,2.50
2023-05-07T22:31:28.742Z,2.50
2023-05-07T22:33:58.104Z,2.73
2023-05-07T22:36:29.194Z,2.30
2023-05-07T22:38:57.696Z,2.35
2023-05-07T22:41:26.606Z,2.33
2023-05-07T22:43:55.018Z,3.00
2023-05-07T22:46:23.724Z,2.50
2023-05-07T22:48:54.412Z,3.33
2023-05-07T22:51:22.931Z,2.55
2023-05-07T22:53:52.759Z,2.97
2023-05-07T22:56:21.229Z,2.83
2023-05-07T22:58:50.548Z,2.60
2023-05-07T23:01:20.150Z,2.70
2023-05-07T23:03:48.642Z,3.10
2023-05-07T23:06:17.121Z,2.83
2023-05-07T23:08:45.902Z,3.13
2023-05-07T23:11:16.071Z,3.00
2023-05-07T23:13:45.632Z,3.23
2023-05-07T23:16:14.272Z,3.27
2023-05-07T23:18:43.224Z,3.67
2023-05-07T23:21:12.195Z,4.40
2023-05-07T23:23:40.982Z,4.30
2023-05-07T23:26:09.949Z,4.30
2023-05-07T23:28:39.809Z,4.70
2023-05-07T23:31:09.075Z,4.43
2023-05-07T23:33:37.658Z,4.20
2023-05-07T23:36:07.267Z,3.90
2023-05-07T23:38:36.258Z,4.13
2023-05-07T23:41:04.744Z,4.27
2023-05-07T23:43:33.207Z,3.90
2023-05-07T23:46:03.204Z,4.00
2023-05-07T23:48:31.723Z,4.83
2023-05-07T23:51:00.193Z,4.00
2023-05-07T23:53:28.885Z,4.30
2023-05-07T23:55:57.908Z,4.13
2023-05-07T23:58:26.335Z,4.30
